Time;durP1;ratioP1;P1;durP2;ratioP2;P2;SDS_P1;SDS_P2;PMS_P1;PMS_P2;Temp;Humidity;BMP_temperature;BMP_pressure;BME280_temperature;BME280_humidity;BME280_pressure;Samples;Min_cycle;Max_cycle;Signal;HPM_P1;HPM_P2
2023/04/05 00:00:53;;;;;;;6.93;6.13;;;;;;;3.21;47.31;96656.16;4968223;28;20405;-68
2023/04/05 00:03:19;;;;;;;7.77;5.70;;;;;;;3.17;47.33;96657.94;4970036;28;20311;-68
2023/04/05 00:05:45;;;;;;;6.73;6.03;;;;;;;3.20;47.41;96648.41;4979304;28;20967;-68
2023/04/05 00:08:22;;;;;;;7.10;6.47;;;;;;;3.23;47.04;96658.75;4987561;28;20208;-68
2023/04/05 00:10:49;;;;;;;6.50;5.90;;;;;;;3.15;47.21;96651.06;4987835;28;20408;-68
2023/04/05 00:13:15;;;;;;;7.97;6.70;;;;;;;3.13;47.18;96642.44;4976896;28;20872;-68
2023/04/05 00:15:40;;;;;;;7.40;6.70;;;;;;;2.95;47.24;96649.53;4986183;28;20420;-68
2023/04/05 00:18:06;;;;;;;6.40;5.73;;;;;;;3.04;47.06;96651.16;4981960;28;20583;-68
2023/04/05 00:20:32;;;;;;;17.53;9.77;;;;;;;2.85;47.58;96641.84;4973497;28;20189;-68
2023/04/05 00:22:58;;;;;;;15.43;6.80;;;;;;;2.99;47.82;96639.97;4972053;28;20862;-68
2023/04/05 00:25:25;;;;;;;7.93;7.13;;;;;;;3.07;47.51;96638.19;4971974;28;20412;-67
2023/04/05 00:27:50;;;;;;;9.50;6.60;;;;;;;3.16;47.56;96629.41;4977762;28;20512;-67
2023/04/05 00:30:22;;;;;;;10.93;6.20;;;;;;;3.07;47.67;96627.81;4981947;28;20436;-66
2023/04/05 00:32:48;;;;;;;17.30;8.63;;;;;;;3.02;47.95;96628.72;4971770;28;20173;-67
2023/04/05 00:35:15;;;;;;;12.93;6.63;;;;;;;2.97;47.96;96628.75;4972744;28;21706;-67
2023/04/05 00:37:40;;;;;;;15.57;7.30;;;;;;;2.85;48.57;96621.97;4982478;28;20443;-67
2023/04/05 00:40:06;;;;;;;17.20;6.60;;;;;;;2.84;48.75;96630.63;4990732;28;20514;-67
2023/04/05 00:42:32;;;;;;;21.10;7.63;;;;;;;3.05;48.43;96621.78;4990916;28;20173;-67
2023/04/05 00:44:57;;;;;;;8.83;6.53;;;;;;;3.03;47.90;96626.13;4985568;28;20436;-67
2023/04/05 00:47:22;;;;;;;9.93;6.77;;;;;;;3.07;47.80;96630.41;4982535;28;20165;-67
2023/04/05 00:49:49;;;;;;;10.23;6.40;;;;;;;3.11;48.05;96624.28;4979529;28;20232;-68
2023/04/05 00:52:14;;;;;;;6.90;5.57;;;;;;;3.09;47.92;96626.03;4981239;28;20177;-67
2023/04/05 00:54:42;;;;;;;7.23;6.63;;;;;;;3.14;48.07;96619.09;4990805;28;20470;-67
2023/04/05 00:57:08;;;;;;;8.53;6.57;;;;;;;3.27;47.34;96624.13;4984656;28;20193;-68
2023/04/05 00:59:34;;;;;;;7.40;6.60;;;;;;;3.11;47.48;96618.25;4972954;28;20456;-67
2023/04/05 01:02:12;;;;;;;11.80;8.10;;;;;;;3.10;47.48;96614.81;4971205;28;20416;-67
2023/04/05 01:04:40;;;;;;;7.50;6.40;;;;;;;3.03;47.92;96609.72;4971102;28;20177;-67
2023/04/05 01:07:22;;;;;;;8.40;6.10;;;;;;;3.03;48.06;96600.19;4977528;28;20920;-67
2023/04/05 01:09:59;;;;;;;6.70;5.97;;;;;;;3.07;47.71;96601.88;4978950;28;20432;-67
2023/04/05 01:12:33;;;;;;;8.23;6.50;;;;;;;2.87;48.15;96599.50;4960403;28;21230;-67
2023/04/05 01:15:00;;;;;;;8.87;5.97;;;;;;;2.75;48.69;96604.81;4981998;28;20471;-67
2023/04/05 01:17:27;;;;;;;10.03;6.33;;;;;;;2.85;48.25;96595.19;4990402;28;20760;-68
2023/04/05 01:19:59;;;;;;;9.17;6.53;;;;;;;2.83;48.40;96596.94;4990511;28;20466;-67
2023/04/05 01:23:02;;;;;;;8.37;7.00;;;;;;;2.87;48.26;96593.44;4978608;28;20463;-68
2023/04/05 01:25:51;;;;;;;13.87;7.00;;;;;;;2.84;47.83;96593.50;4950540;28;20416;-67
2023/04/05 01:28:56;;;;;;;6.47;5.87;;;;;;;2.86;47.90;96581.34;4951401;28;20466;-67
2023/04/05 01:31:46;;;;;;;8.83;6.20;;;;;;;2.79;47.61;96584.88;4964101;28;20913;-67
2023/04/05 01:34:42;;;;;;;7.53;6.50;;;;;;;2.74;48.02;96585.81;4981838;28;20566;-68
2023/04/05 01:37:12;;;;;;;10.53;7.17;;;;;;;2.68;48.00;96583.28;4989621;28;20420;-68
2023/04/05 01:39:38;;;;;;;8.30;6.17;;;;;;;2.75;48.14;96573.72;4985531;28;20574;-68
2023/04/05 01:42:04;;;;;;;11.23;6.90;;;;;;;2.73;47.88;96576.31;4981612;28;20869;-68
2023/04/05 01:44:29;;;;;;;7.90;5.83;;;;;;;2.66;47.55;96577.25;4990596;28;20456;-68
2023/04/05 01:46:55;;;;;;;9.13;6.13;;;;;;;2.72;47.91;96579.78;4979441;28;20191;-68
2023/04/05 01:49:21;;;;;;;7.37;6.37;;;;;;;2.71;47.89;96572.00;4973953;28;20272;-68
2023/04/05 01:51:47;;;;;;;8.77;6.87;;;;;;;2.66;47.75;96576.38;4989367;28;20551;-68
2023/04/05 01:54:12;;;;;;;9.37;6.80;;;;;;;2.66;48.09;96572.06;4985719;28;20536;-68
2023/04/05 01:56:38;;;;;;;8.50;7.57;;;;;;;2.70;47.56;96567.72;4981982;28;20627;-68
2023/04/05 01:59:03;;;;;;;7.80;6.47;;;;;;;2.69;48.13;96565.97;4990344;28;20674;-68
2023/04/05 02:01:28;;;;;;;8.00;6.27;;;;;;;2.66;47.92;96574.66;4990335;28;20172;-68
2023/04/05 02:03:54;;;;;;;16.10;7.53;;;;;;;2.68;48.54;96572.91;4986281;28;20186;-68
2023/04/05 02:06:19;;;;;;;8.47;7.33;;;;;;;2.52;48.49;96572.19;4981812;28;21046;-68
2023/04/05 02:08:45;;;;;;;7.57;6.10;;;;;;;2.47;48.50;96563.59;4990160;28;20203;-68
2023/04/05 02:11:10;;;;;;;8.27;6.83;;;;;;;2.54;48.45;96570.44;4989858;28;20177;-68
2023/04/05 02:13:35;;;;;;;6.67;6.07;;;;;;;2.60;48.18;96568.66;4981273;28;20205;-68
2023/04/05 02:16:01;;;;;;;7.83;6.80;;;;;;;2.52;48.30;96566.16;4980893;28;20231;-68
2023/04/05 02:18:30;;;;;;;7.33;6.70;;;;;;;2.61;48.16;96560.88;4965102;28;20209;-68
2023/04/05 02:21:06;;;;;;;12.33;6.23;;;;;;;2.42;48.79;96561.94;4976374;28;20197;-68
2023/04/05 02:23:33;;;;;;;6.77;6.03;;;;;;;2.41;48.46;96555.91;4989852;28;20780;-68
2023/04/05 02:25:59;;;;;;;7.10;6.40;;;;;;;2.43;49.06;96555.88;4989585;28;20420;-68
2023/04/05 02:28:24;;;;;;;8.33;7.03;;;;;;;2.32;48.89;96550.81;4982558;28;20460;-68
2023/04/05 02:30:53;;;;;;;7.67;6.07;;;;;;;2.27;49.31;96556.03;4979448;28;20425;-68
2023/04/05 02:33:19;;;;;;;14.77;7.40;;;;;;;2.46;48.61;96553.28;4970668;28;20236;-68
2023/04/05 02:35:47;;;;;;;7.27;6.13;;;;;;;2.45;48.85;96548.97;4970341;28;20910;-68
2023/04/05 02:38:13;;;;;;;7.43;6.47;;;;;;;2.54;48.18;96541.09;4963806;28;20202;-68
2023/04/05 02:40:40;;;;;;;8.63;7.30;;;;;;;2.41;49.34;96542.97;4981308;28;20463;-68
2023/04/05 02:43:06;;;;;;;11.33;6.23;;;;;;;2.28;49.30;96531.84;4987443;28;20599;-68
2023/04/05 02:45:31;;;;;;;7.73;6.93;;;;;;;2.34;49.05;96533.53;4989578;28;20475;-68
2023/04/05 02:47:57;;;;;;;8.10;7.10;;;;;;;2.35;49.37;96537.84;4990157;28;20216;-68
2023/04/05 02:50:22;;;;;;;10.20;6.60;;;;;;;2.37;48.91;96532.66;4995373;28;20666;-68
2023/04/05 02:52:49;;;;;;;8.50;6.87;;;;;;;2.28;49.89;96529.25;4982026;28;20165;-68
2023/04/05 02:55:17;;;;;;;11.43;7.80;;;;;;;2.19;49.30;96526.75;4989922;28;20288;-68
2023/04/05 02:57:43;;;;;;;8.90;6.30;;;;;;;2.33;49.13;96532.66;4990635;28;20415;-68
2023/04/05 03:00:12;;;;;;;10.40;7.83;;;;;;;2.10;49.26;96529.41;4971647;28;20468;-68
2023/04/05 03:02:41;;;;;;;8.07;6.93;;;;;;;2.22;49.42;96528.44;4984853;28;20486;-68
2023/04/05 03:05:08;;;;;;;8.10;6.20;;;;;;;2.20;49.56;96519.88;4989731;28;20485;-68
2023/04/05 03:07:36;;;;;;;8.20;7.30;;;;;;;2.23;49.03;96518.09;4978464;28;20427;-68
2023/04/05 03:10:03;;;;;;;10.73;7.03;;;;;;;2.20;48.85;96523.31;4981054;28;20448;-68
2023/04/05 03:12:29;;;;;;;7.60;6.10;;;;;;;2.26;48.64;96522.38;4970462;28;20409;-68
2023/04/05 03:14:54;;;;;;;14.07;6.60;;;;;;;2.09;49.67;96519.94;4969486;28;20463;-68
2023/04/05 03:17:20;;;;;;;11.33;7.03;;;;;;;2.02;49.52;96519.13;4981361;28;20177;-67
2023/04/05 03:19:45;;;;;;;21.07;7.67;;;;;;;1.98;49.68;96519.16;4989129;28;20201;-67
2023/04/05 03:22:11;;;;;;;13.13;6.80;;;;;;;1.95;49.51;96516.63;4979132;28;20184;-67
2023/04/05 03:24:36;;;;;;;10.37;6.60;;;;;;;1.88;50.15;96511.47;4994620;28;20322;-67
2023/04/05 03:27:05;;;;;;;9.33;6.93;;;;;;;2.13;49.70;96521.66;4981098;28;20176;-67
2023/04/05 03:29:30;;;;;;;7.63;6.90;;;;;;;1.93;50.26;96526.97;4989095;28;20287;-68
2023/04/05 03:31:59;;;;;;;8.67;7.43;;;;;;;2.05;49.62;96519.09;4969564;28;20922;-68
2023/04/05 03:34:29;;;;;;;8.53;7.50;;;;;;;2.09;49.93;96515.63;4980961;28;20208;-68
2023/04/05 03:36:55;;;;;;;7.93;7.13;;;;;;;1.89;49.75;96515.81;4988187;28;20408;-68
2023/04/05 03:39:20;;;;;;;9.17;6.70;;;;;;;2.08;49.51;96519.09;4988471;28;20793;-68
2023/04/05 03:41:45;;;;;;;9.43;7.97;;;;;;;1.98;49.61;96516.59;4976772;28;20189;-68
2023/04/05 03:44:11;;;;;;;9.37;6.80;;;;;;;1.98;49.96;96514.84;4973925;28;20625;-68
2023/04/05 03:46:37;;;;;;;7.40;6.70;;;;;;;2.03;49.37;96512.22;4969951;28;20178;-68
2023/04/05 03:49:02;;;;;;;7.93;7.13;;;;;;;2.03;49.00;96514.81;4974664;28;20276;-67
2023/04/05 03:51:28;;;;;;;9.63;7.47;;;;;;;1.97;49.49;96518.31;4988109;28;20267;-67
2023/04/05 03:53:53;;;;;;;10.53;8.43;;;;;;;2.01;48.79;96512.25;4987971;28;20266;-67
2023/04/05 03:56:19;;;;;;;8.77;6.50;;;;;;;2.04;49.38;96511.38;4980994;28;20643;-67
2023/04/05 03:58:45;;;;;;;10.87;7.27;;;;;;;2.02;49.66;96519.13;4983075;28;20204;-67
2023/04/05 04:01:11;;;;;;;10.63;8.70;;;;;;;1.87;49.95;96509.78;4977702;28;20814;-67
2023/04/05 04:03:36;;;;;;;27.67;16.37;;;;;;;1.86;49.55;96508.03;4974629;28;20166;-66
2023/04/05 04:06:06;;;;;;;23.33;12.80;;;;;;;1.75;49.87;96517.63;4971668;28;20181;-67
2023/04/05 04:08:32;;;;;;;19.73;11.20;;;;;;;1.76;49.80;96516.75;4980513;28;20541;-67
2023/04/05 04:10:57;;;;;;;15.73;8.23;;;;;;;1.89;49.58;96513.22;4988933;28;20412;-68
2023/04/05 04:13:23;;;;;;;17.90;9.23;;;;;;;1.89;49.25;96514.91;4988676;28;20271;-68
2023/04/05 04:15:48;;;;;;;15.00;9.30;;;;;;;1.69;50.15;96510.75;4986574;28;20172;-68
2023/04/05 04:18:14;;;;;;;9.47;8.13;;;;;;;1.70;49.59;96509.03;4969826;28;20239;-68
2023/04/05 04:20:39;;;;;;;13.83;8.20;;;;;;;1.79;49.77;96508.97;4980239;28;20169;-67
2023/04/05 04:23:09;;;;;;;12.07;7.27;;;;;;;1.76;49.25;96515.91;4988546;28;20598;-69
2023/04/05 04:25:37;;;;;;;12.20;7.27;;;;;;;1.84;49.66;96509.81;4988685;28;20180;-68
2023/04/05 04:28:06;;;;;;;13.73;7.73;;;;;;;1.88;49.37;96510.63;4970462;28;20912;-68
2023/04/05 04:30:33;;;;;;;14.60;7.93;;;;;;;1.83;49.68;96513.25;4961553;28;20409;-68
2023/04/05 04:33:03;;;;;;;22.70;8.47;;;;;;;1.70;49.85;96511.63;4967713;28;20412;-68
2023/04/05 04:35:30;;;;;;;18.30;7.50;;;;;;;1.85;49.93;96513.25;4971394;28;20491;-68
2023/04/05 04:37:59;;;;;;;20.03;8.27;;;;;;;1.78;50.03;96515.03;4978499;28;20436;-67
2023/04/05 04:40:45;;;;;;;21.50;8.30;;;;;;;1.72;49.89;96511.63;4985939;28;20424;-68
2023/04/05 04:43:25;;;;;;;18.93;8.90;;;;;;;1.63;50.42;96515.13;4975479;28;20481;-67
2023/04/05 04:45:53;;;;;;;10.97;7.37;;;;;;;1.78;50.11;96517.59;4986075;28;20543;-67
2023/04/05 04:48:19;;;;;;;27.00;9.00;;;;;;;1.75;49.77;96512.47;4987531;28;20432;-68
2023/04/05 04:50:46;;;;;;;18.57;8.77;;;;;;;1.66;50.52;96517.69;4979724;28;21025;-68
2023/04/05 04:53:12;;;;;;;11.27;9.00;;;;;;;1.65;50.47;96526.31;4969231;28;20181;-68
2023/04/05 04:55:41;;;;;;;12.77;8.53;;;;;;;1.82;50.35;96526.19;4959190;28;20457;-68
2023/04/05 04:58:11;;;;;;;10.63;8.10;;;;;;;1.74;50.64;96521.09;4966042;28;20872;-68
2023/04/05 05:00:43;;;;;;;17.13;8.70;;;;;;;1.72;50.33;96522.81;4975074;28;20431;-67
2023/04/05 05:03:12;;;;;;;21.10;10.27;;;;;;;1.71;50.20;96526.28;4983086;28;21070;-67
2023/04/05 05:05:44;;;;;;;8.93;7.60;;;;;;;1.82;50.00;96526.19;4990863;28;20415;-66
2023/04/05 05:08:10;;;;;;;19.27;10.63;;;;;;;1.77;50.26;96525.38;4976524;28;20493;-68
2023/04/05 05:10:36;;;;;;;10.73;7.63;;;;;;;1.78;50.05;96527.09;4980170;28;20438;-66
2023/04/05 05:13:02;;;;;;;10.30;8.10;;;;;;;1.78;50.34;96525.38;4976380;28;20478;-67
2023/04/05 05:15:27;;;;;;;10.03;7.73;;;;;;;1.82;49.76;96516.72;4975098;28;20746;-67
2023/04/05 05:17:57;;;;;;;12.30;8.33;;;;;;;2.02;49.85;96523.47;4992152;28;20162;-67
2023/04/05 05:20:24;;;;;;;9.40;8.50;;;;;;;1.80;50.37;96521.03;4967696;28;21146;-66
2023/04/05 05:22:50;;;;;;;11.13;9.00;;;;;;;1.96;49.99;96526.09;4973452;28;20508;-67
2023/04/05 05:25:15;;;;;;;8.77;7.87;;;;;;;2.11;49.30;96528.56;4987872;28;20519;-67
2023/04/05 05:27:41;;;;;;;16.67;9.03;;;;;;;2.09;49.41;96528.56;4970420;28;20714;-67
2023/04/05 05:30:08;;;;;;;14.43;8.90;;;;;;;2.20;49.23;96527.63;4972030;28;20182;-66
2023/04/05 05:32:33;;;;;;;11.13;8.67;;;;;;;2.29;48.84;96528.41;4979804;28;20311;-67
2023/04/05 05:34:58;;;;;;;13.30;8.20;;;;;;;2.17;48.76;96525.91;4987477;28;20557;-67
2023/04/05 05:37:31;;;;;;;12.83;7.73;;;;;;;2.04;49.35;96527.75;4966779;28;20273;-67
2023/04/05 05:39:57;;;;;;;11.50;8.17;;;;;;;2.14;49.44;96522.50;4961965;28;20272;-69
2023/04/05 05:42:23;;;;;;;12.73;7.80;;;;;;;2.99;47.28;96517.28;4963758;28;20437;-66
2023/04/05 05:44:48;;;;;;;11.70;7.87;;;;;;;4.30;44.30;96518.78;4973878;28;20412;-67
2023/04/05 05:47:14;;;;;;;8.20;7.00;;;;;;;5.50;40.44;96509.50;4958139;28;20265;-67
2023/04/05 05:49:39;;;;;;;8.50;7.37;;;;;;;6.78;37.70;96504.66;4952003;28;20229;-67
2023/04/05 05:52:05;;;;;;;8.07;7.27;;;;;;;7.05;37.45;96502.19;4963976;28;20264;-67
2023/04/05 05:54:30;;;;;;;7.47;6.67;;;;;;;7.16;37.04;96495.75;4958046;28;20204;-68
2023/04/05 05:57:02;;;;;;;9.17;8.10;;;;;;;7.57;35.00;96495.44;4969613;28;20321;-68
2023/04/05 05:59:27;;;;;;;10.40;8.23;;;;;;;7.93;35.06;96500.41;4956668;28;20349;-68
2023/04/05 06:01:56;;;;;;;9.53;8.00;;;;;;;8.43;33.88;96492.69;4951380;28;20458;-67
2023/04/05 06:04:21;;;;;;;7.73;7.03;;;;;;;8.14;34.27;96497.09;4953611;28;20174;-70
2023/04/05 06:06:47;;;;;;;7.97;7.20;;;;;;;8.44;33.28;96503.09;4951300;28;20430;-67
2023/04/05 06:09:14;;;;;;;8.80;8.00;;;;;;;8.68;33.33;96493.56;4954861;28;20194;-68
2023/04/05 06:11:40;;;;;;;8.40;6.60;;;;;;;8.40;33.51;96492.81;4965217;28;20927;-68
2023/04/05 06:14:05;;;;;;;8.73;7.00;;;;;;;9.87;31.76;96495.25;4953012;28;20465;-68
2023/04/05 06:16:31;;;;;;;8.50;7.70;;;;;;;9.78;30.82;96498.25;4951640;28;20533;-68
2023/04/05 06:18:57;;;;;;;7.60;6.80;;;;;;;8.88;32.37;96505.06;4949953;28;20241;-67
2023/04/05 06:21:22;;;;;;;7.87;7.07;;;;;;;8.98;32.89;96506.47;4967207;28;20244;-67
2023/04/05 06:23:48;;;;;;;16.50;7.60;;;;;;;8.78;33.69;96514.16;4956782;28;20178;-69
2023/04/05 06:26:19;;;;;;;12.73;7.87;;;;;;;8.40;33.44;96511.94;4967069;28;20240;-67
2023/04/05 06:28:48;;;;;;;10.00;7.07;;;;;;;8.65;52.42;96514.59;4973004;28;20293;-68
2023/04/05 06:31:24;;;;;;;7.70;6.97;;;;;;;8.47;34.96;96521.31;4957817;28;20437;-68
2023/04/05 06:33:50;;;;;;;16.47;6.90;;;;;;;8.75;33.65;96522.13;4952954;28;20457;-69
2023/04/05 06:36:16;;;;;;;8.30;7.43;;;;;;;9.10;32.74;96518.28;4954289;28;20477;-68
2023/04/05 06:38:41;;;;;;;15.33;7.80;;;;;;;8.84;33.72;96524.44;4954856;28;20213;-69
2023/04/05 06:41:07;;;;;;;10.50;7.63;;;;;;;8.57;33.09;96521.84;4976795;28;20269;-68
2023/04/05 06:43:32;;;;;;;9.80;7.30;;;;;;;7.99;34.79;96535.03;4977872;28;20177;-68
2023/04/05 06:45:58;;;;;;;8.40;7.30;;;;;;;7.50;35.08;96530.47;4972362;28;20671;-68
2023/04/05 06:48:24;;;;;;;8.70;7.63;;;;;;;7.53;35.28;96523.38;4967863;28;20655;-68
2023/04/05 06:50:57;;;;;;;7.73;6.60;;;;;;;7.74;34.72;96524.50;4963984;28;20421;-68
2023/04/05 06:53:23;;;;;;;8.50;6.60;;;;;;;8.01;34.74;96525.41;4964326;28;20185;-68
2023/04/05 06:55:51;;;;;;;12.70;7.20;;;;;;;8.58;33.34;96526.19;4951709;28;20542;-67
2023/04/05 06:58:17;;;;;;;8.10;7.30;;;;;;;8.17;34.78;96519.66;4964547;28;20212;-67
2023/04/05 07:00:42;;;;;;;8.20;7.40;;;;;;;8.52;33.09;96513.31;4954919;28;20417;-67
2023/04/05 07:03:08;;;;;;;8.20;7.40;;;;;;;7.48;35.46;96516.59;4962087;28;20178;-67
2023/04/05 07:05:33;;;;;;;9.40;7.30;;;;;;;8.34;34.67;96521.72;4951517;28;20169;-67
2023/04/05 07:07:58;;;;;;;8.07;7.27;;;;;;;8.20;34.03;96520.44;4951299;28;20201;-67
2023/04/05 07:10:24;;;;;;;7.77;6.97;;;;;;;8.72;33.20;96525.72;4964106;28;20208;-67
2023/04/05 07:12:50;;;;;;;7.63;6.83;;;;;;;8.89;33.19;96519.88;4968117;28;21094;-67
2023/04/05 07:15:15;;;;;;;7.73;6.97;;;;;;;8.72;32.23;96522.22;4960467;28;20237;-67
2023/04/05 07:17:41;;;;;;;7.63;6.93;;;;;;;9.42;32.43;96517.06;4954269;28;20174;-67
2023/04/05 07:20:07;;;;;;;7.93;7.10;;;;;;;8.99;32.51;96518.66;4952034;28;20174;-67
2023/04/05 07:22:34;;;;;;;8.73;7.83;;;;;;;8.64;33.47;96523.34;4949146;28;20175;-67
2023/04/05 07:24:59;;;;;;;8.33;7.63;;;;;;;8.65;33.90;96535.53;4958218;28;20657;-68
2023/04/05 07:27:25;;;;;;;9.47;8.20;;;;;;;9.31;33.56;96530.56;4963371;28;20538;-68
2023/04/05 07:29:50;;;;;;;8.07;7.27;;;;;;;8.51;33.07;96524.69;4959248;28;20233;-70
2023/04/05 07:32:16;;;;;;;7.80;7.03;;;;;;;8.50;33.76;96532.56;4951229;28;20695;-67
2023/04/05 07:34:41;;;;;;;9.40;7.10;;;;;;;7.99;35.20;96531.59;4952110;28;20206;-68
2023/04/05 07:37:07;;;;;;;8.13;7.07;;;;;;;7.66;35.24;96531.72;4950525;28;20341;-68
2023/04/05 07:39:32;;;;;;;8.70;7.80;;;;;;;6.51;38.09;96541.00;4958382;28;20249;-68
2023/04/05 07:42:00;;;;;;;8.90;7.20;;;;;;;6.88;38.00;96532.22;4950429;28;20807;-68
2023/04/05 07:44:26;;;;;;;10.53;7.13;;;;;;;7.33;36.28;96533.56;4953913;28;20174;-68
2023/04/05 07:46:51;;;;;;;9.40;7.40;;;;;;;7.88;35.28;96531.91;4965456;28;20425;-68
2023/04/05 07:49:16;;;;;;;8.57;7.10;;;;;;;7.42;37.06;96528.09;4955116;28;20762;-67
2023/04/05 07:51:42;;;;;;;10.67;7.80;;;;;;;8.59;34.60;96535.72;4950989;28;20241;-69
2023/04/05 07:54:08;;;;;;;8.73;7.30;;;;;;;6.94;37.30;96539.84;4949656;28;20253;-68
2023/04/05 07:56:35;;;;;;;15.73;7.33;;;;;;;7.58;36.94;96538.91;4963552;28;20710;-69
2023/04/05 07:59:00;;;;;;;11.00;7.83;;;;;;;7.68;36.46;96537.75;4966316;28;20218;-68
2023/04/05 08:01:30;;;;;;;9.20;8.33;;;;;;;8.73;34.20;96531.78;4951782;28;20915;-69
2023/04/05 08:03:57;;;;;;;10.53;7.40;;;;;;;7.85;36.51;96529.41;4951029;28;20205;-69
2023/04/05 08:06:26;;;;;;;8.20;7.40;;;;;;;7.10;37.73;96536.84;4950485;28;20436;-69
2023/04/05 08:08:51;;;;;;;11.00;7.70;;;;;;;7.77;37.53;96528.75;4959370;28;20436;-67
2023/04/05 08:11:17;;;;;;;11.40;8.33;;;;;;;8.60;35.98;96537.47;4965683;28;20433;-67
2023/04/05 08:13:42;;;;;;;9.43;6.87;;;;;;;8.25;35.75;96536.81;4949490;28;20245;-67
2023/04/05 08:16:10;;;;;;;9.10;8.20;;;;;;;6.87;37.87;96535.69;4962849;28;20599;-68
2023/04/05 08:18:37;;;;;;;11.10;7.80;;;;;;;7.88;37.49;96538.91;4958650;28;20285;-67
2023/04/05 08:21:03;;;;;;;8.63;7.30;;;;;;;7.64;38.06;96530.91;4961818;28;20445;-68
2023/04/05 08:23:28;;;;;;;10.33;8.00;;;;;;;7.63;37.89;96539.66;4966750;28;20479;-68
2023/04/05 08:25:54;;;;;;;9.40;8.13;;;;;;;7.30;37.92;96538.84;4958312;28;20923;-68
2023/04/05 08:28:20;;;;;;;9.07;7.77;;;;;;;7.89;37.42;96533.63;4959866;28;20301;-68
2023/04/05 08:30:46;;;;;;;12.40;8.00;;;;;;;9.00;35.29;96529.97;4952009;28;20205;-68
2023/04/05 08:33:12;;;;;;;9.73;8.00;;;;;;;10.01;33.52;96530.56;4951422;28;20832;-68
2023/04/05 08:35:38;;;;;;;9.20;8.00;;;;;;;10.89;31.96;96523.47;4957453;28;20197;-69
2023/04/05 08:38:05;;;;;;;8.20;7.23;;;;;;;8.77;34.78;96525.56;4962347;28;20194;-68
2023/04/05 08:40:49;;;;;;;9.77;8.10;;;;;;;7.26;38.27;96532.88;4964384;28;20997;-68
2023/04/05 08:43:43;;;;;;;11.23;7.73;;;;;;;9.39;35.05;96519.81;4970979;28;20487;-68
2023/04/05 08:46:14;;;;;;;9.90;8.87;;;;;;;9.83;33.17;96521.66;4964063;28;21036;-68
2023/04/05 08:48:40;;;;;;;9.00;8.07;;;;;;;8.51;34.07;96535.16;4966201;28;20448;-68
2023/04/05 08:51:08;;;;;;;8.07;7.27;;;;;;;8.62;34.29;96530.41;4961807;28;20713;-67
2023/04/05 08:53:33;;;;;;;11.10;7.90;;;;;;;9.11;34.50;96531.28;4962667;28;20253;-68
2023/04/05 08:56:00;;;;;;;8.70;7.90;;;;;;;10.63;32.18;96524.56;4961653;28;20782;-68
2023/04/05 08:58:27;;;;;;;8.10;7.10;;;;;;;11.29;30.38;96515.56;4970207;28;20194;-68
2023/04/05 09:00:54;;;;;;;8.20;7.50;;;;;;;10.35;30.88;96520.47;4966810;28;20420;-67
2023/04/05 09:03:28;;;;;;;9.90;7.00;;;;;;;9.33;33.31;96522.69;4973047;28;20459;-68
2023/04/05 09:05:57;;;;;;;8.13;7.37;;;;;;;10.01;32.67;96520.06;4972275;28;20503;-68
2023/04/05 09:08:23;;;;;;;9.80;8.80;;;;;;;10.51;31.24;96522.44;4961109;28;20859;-68
2023/04/05 09:10:53;;;;;;;9.80;8.80;;;;;;;9.36;32.54;96533.03;4965597;28;20495;-67
2023/04/05 09:13:18;;;;;;;11.70;7.77;;;;;;;8.68;34.22;96535.41;4958637;28;20182;-69
2023/04/05 09:15:45;;;;;;;9.10;8.17;;;;;;;8.46;34.43;96532.69;4966704;28;20531;-67
2023/04/05 09:18:11;;;;;;;9.57;8.40;;;;;;;9.37;33.37;96534.72;4967374;28;20213;-67
2023/04/05 09:20:37;;;;;;;19.20;8.03;;;;;;;9.19;32.75;96533.66;4953207;28;20426;-67
2023/04/05 09:23:02;;;;;;;9.20;7.83;;;;;;;8.88;32.90;96537.38;4962521;28;20178;-67
2023/04/05 09:25:31;;;;;;;8.70;7.53;;;;;;;9.45;31.81;96532.69;4967468;28;20194;-68
2023/04/05 09:27:59;;;;;;;10.67;8.17;;;;;;;9.58;30.58;96532.22;4968255;28;20212;-68
2023/04/05 09:30:26;;;;;;;8.57;7.77;;;;;;;9.04;31.55;96531.56;4962249;28;20757;-68
2023/04/05 09:32:53;;;;;;;14.40;9.13;;;;;;;9.71;31.49;96528.25;4964387;28;20955;-68
2023/04/05 09:35:23;;;;;;;8.87;7.50;;;;;;;9.58;30.77;96525.22;4955385;28;20511;-68
2023/04/05 09:37:53;;;;;;;9.93;8.77;;;;;;;9.78;30.28;96526.22;4960200;28;20924;-67
2023/04/05 09:40:20;;;;;;;8.50;7.80;;;;;;;8.76;32.67;96537.75;4958653;28;20453;-68
2023/04/05 09:42:46;;;;;;;11.33;9.90;;;;;;;10.34;29.81;96523.97;4972365;28;20503;-68
2023/04/05 09:45:12;;;;;;;8.13;7.33;;;;;;;10.47;30.08;96523.50;4971869;28;20456;-70
2023/04/05 09:47:40;;;;;;;9.33;6.90;;;;;;;10.23;29.73;96525.31;4957491;28;20668;-66
2023/04/05 09:50:15;;;;;;;8.47;7.17;;;;;;;10.59;29.29;96520.34;4952929;28;20437;-68
2023/04/05 09:52:41;;;;;;;8.10;7.37;;;;;;;11.39;28.56;96519.50;4953955;28;20536;-67
2023/04/05 09:55:07;;;;;;;10.30;6.60;;;;;;;9.32;28.43;96531.44;4952448;28;20525;-69
2023/04/05 09:57:35;;;;;;;8.40;7.20;;;;;;;9.57;28.52;96528.75;4953343;28;20529;-69
2023/04/05 10:00:01;;;;;;;7.83;7.00;;;;;;;8.99;29.08;96531.72;4953830;28;20452;-69
2023/04/05 10:02:37;;;;;;;8.23;6.60;;;;;;;9.30;28.24;96528.00;4955136;28;20524;-68
2023/04/05 10:05:10;;;;;;;7.93;6.63;;;;;;;10.32;28.09;96523.22;4953071;28;20951;-69
2023/04/05 10:07:36;;;;;;;7.45;6.75;;;;;;;10.50;27.72;96526.00;4966378;28;20434;-69
2023/04/05 10:10:03;;;;;;;7.20;6.50;;;;;;;9.88;29.06;96525.81;4959429;28;20194;-68
2023/04/05 10:12:31;;;;;;;7.90;7.20;;;;;;;9.98;30.22;96520.22;4962043;28;20422;-68
2023/04/05 10:14:56;;;;;;;19.50;8.87;;;;;;;10.99;28.21;96513.41;4970597;28;20480;-68
2023/04/05 10:17:48;;;;;;;10.13;7.10;;;;;;;10.88;28.06;96511.22;4959525;28;20417;-68
2023/04/05 10:20:16;;;;;;;20.90;8.97;;;;;;;10.55;28.75;96513.53;4952228;28;20174;-68
2023/04/05 10:22:50;;;;;;;8.13;7.30;;;;;;;10.20;29.47;96522.81;4960288;28;20416;-68
2023/04/05 10:25:51;;;;;;;19.40;8.23;;;;;;;10.00;30.22;96507.88;4970754;28;20527;-68
2023/04/05 10:28:36;;;;;;;9.23;7.50;;;;;;;10.30;28.60;96518.91;4969940;28;20448;-68
2023/04/05 10:31:23;;;;;;;41.43;10.20;;;;;;;10.88;26.95;96510.38;4964206;28;20425;-68
2023/04/05 10:34:02;;;;;;;15.63;7.05;;;;;;;11.43;26.41;96507.91;4955595;28;20420;-68
2023/04/05 10:37:09;;;;;;;20.93;7.67;;;;;;;11.71;26.71;96504.03;4951446;28;20177;-68
2023/04/05 10:39:41;;;;;;;12.20;7.50;;;;;;;10.91;27.85;96491.88;4936258;29;20446;-68
2023/04/05 10:42:18;;;;;;;16.53;7.07;;;;;;;10.49;27.30;96496.28;4930319;29;20430;-69
2023/04/05 10:44:47;;;;;;;14.90;7.50;;;;;;;10.51;27.84;96499.69;4931647;29;20422;-68
2023/04/05 10:47:16;;;;;;;29.40;9.83;;;;;;;10.62;28.17;96501.84;4933838;29;20433;-68
2023/04/05 10:49:52;;;;;;;18.17;8.30;;;;;;;11.04;27.36;96497.44;4949573;29;20469;-68
2023/04/05 10:52:18;;;;;;;72.73;15.70;;;;;;;11.37;26.47;96490.66;4940635;29;20513;-68
2023/04/05 10:54:44;;;;;;;41.25;10.68;;;;;;;11.71;26.86;96489.09;4942970;29;20828;-68
2023/04/05 10:57:10;;;;;;;14.47;8.00;;;;;;;10.59;27.54;96494.97;4944225;29;20209;-66
2023/04/05 10:59:40;;;;;;;11.77;8.50;;;;;;;10.51;27.89;96493.56;4942413;29;20210;-67
2023/04/05 11:02:07;;;;;;;8.40;7.60;;;;;;;10.87;27.32;96483.28;4945332;29;20537;-69
2023/04/05 11:04:33;;;;;;;18.67;7.80;;;;;;;10.41;27.44;96489.63;4939093;29;20899;-68
2023/04/05 11:07:40;;;;;;;10.00;7.10;;;;;;;10.04;28.28;96497.22;4935160;28;20492;-68
2023/04/05 11:10:16;;;;;;;8.03;7.23;;;;;;;9.13;29.19;96505.06;4938855;28;20451;-67
2023/04/05 11:12:48;;;;;;;10.97;8.27;;;;;;;8.20;31.29;96502.13;4972304;28;20425;-68
2023/04/05 11:15:31;;;;;;;8.77;7.47;;;;;;;8.34;31.51;96500.81;4954701;28;20465;-67
2023/04/05 11:18:03;;;;;;;9.27;8.27;;;;;;;9.12;30.14;96490.28;4954990;28;20444;-68
2023/04/05 11:20:44;;;;;;;8.10;7.30;;;;;;;10.31;28.13;96490.00;4958999;28;20472;-68
2023/04/05 11:23:11;;;;;;;11.50;8.10;;;;;;;10.06;28.05;96476.16;4977317;28;20433;-68
2023/04/05 11:25:39;;;;;;;8.33;7.53;;;;;;;9.26;29.72;96485.38;4955119;28;20789;-68
2023/04/05 11:28:05;;;;;;;10.43;7.97;;;;;;;9.30;30.11;96480.88;4953227;28;20461;-67
2023/04/05 11:30:47;;;;;;;8.23;7.40;;;;;;;9.44;29.22;96480.34;4957822;28;20552;-68
2023/04/05 11:33:41;;;;;;;8.67;6.87;;;;;;;10.42;27.84;96475.59;4953664;28;20428;-68
2023/04/05 11:36:07;;;;;;;8.60;7.13;;;;;;;10.25;28.81;96481.50;4957751;28;20438;-68
2023/04/05 11:38:32;;;;;;;9.80;7.73;;;;;;;9.99;28.21;96477.31;4959762;28;20523;-68
2023/04/05 11:41:10;;;;;;;9.50;6.97;;;;;;;10.35;27.39;96462.75;4968772;28;20448;-69
2023/04/05 11:43:37;;;;;;;12.33;7.87;;;;;;;10.37;27.35;96465.31;4950333;28;20178;-67